sensor_id;sensor_type;location;lat;lon;timestamp;P1;durP1;ratioP1;P2;durP2;ratioP2
23181;SDS011;11759;51.282;6.642;2023-04-03T00:02:00;20.13;;;9.65;;
23181;SDS011;11759;51.282;6.642;2023-04-03T00:04:27;19.60;;;10.10;;
23181;SDS011;11759;51.282;6.642;2023-04-03T00:06:54;21.30;;;10.32;;
23181;SDS011;11759;51.282;6.642;2023-04-03T00:09:20;15.07;;;10.15;;
23181;SDS011;11759;51.282;6.642;2023-04-03T00:11:47;19.70;;;10.90;;
23181;SDS011;11759;51.282;6.642;2023-04-03T00:14:13;17.52;;;8.98;;
23181;SDS011;11759;51.282;6.642;2023-04-03T00:16:40;13.75;;;8.05;;
23181;SDS011;11759;51.282;6.642;2023-04-03T00:19:07;72.97;;;19.35;;
23181;SDS011;11759;51.282;6.642;2023-04-03T00:21:34;13.80;;;8.38;;
23181;SDS011;11759;51.282;6.642;2023-04-03T00:24:00;21.92;;;7.65;;
23181;SDS011;11759;51.282;6.642;2023-04-03T00:26:27;181.63;;;60.65;;
23181;SDS011;11759;51.282;6.642;2023-04-03T00:28:54;347.48;;;88.00;;
23181;SDS011;11759;51.282;6.642;2023-04-03T00:31:20;16.30;;;7.75;;
23181;SDS011;11759;51.282;6.642;2023-04-03T00:33:47;15.77;;;8.38;;
23181;SDS011;11759;51.282;6.642;2023-04-03T00:36:15;409.73;;;91.47;;
23181;SDS011;11759;51.282;6.642;2023-04-03T00:38:42;60.70;;;15.77;;
23181;SDS011;11759;51.282;6.642;2023-04-03T00:41:09;16.83;;;8.40;;
23181;SDS011;11759;51.282;6.642;2023-04-03T00:43:35;18.90;;;10.15;;
23181;SDS011;11759;51.282;6.642;2023-04-03T00:46:02;20.95;;;11.13;;
23181;SDS011;11759;51.282;6.642;2023-04-03T00:48:31;21.92;;;11.23;;
23181;SDS011;11759;51.282;6.642;2023-04-03T00:51:00;19.65;;;11.88;;
23181;SDS011;11759;51.282;6.642;2023-04-03T00:53:29;462.25;;;108.10;;
23181;SDS011;11759;51.282;6.642;2023-04-03T00:55:57;23.50;;;11.23;;
23181;SDS011;11759;51.282;6.642;2023-04-03T00:58:31;20.80;;;11.70;;
23181;SDS011;11759;51.282;6.642;2023-04-03T01:01:00;21.58;;;12.50;;
23181;SDS011;11759;51.282;6.642;2023-04-03T01:03:30;18.95;;;11.18;;
23181;SDS011;11759;51.282;6.642;2023-04-03T01:05:59;23.25;;;12.65;;
23181;SDS011;11759;51.282;6.642;2023-04-03T01:08:26;23.48;;;12.35;;
23181;SDS011;11759;51.282;6.642;2023-04-03T01:11:42;21.67;;;12.13;;
23181;SDS011;11759;51.282;6.642;2023-04-03T01:14:09;416.80;;;101.45;;
23181;SDS011;11759;51.282;6.642;2023-04-03T01:16:35;31.35;;;13.27;;
23181;SDS011;11759;51.282;6.642;2023-04-03T01:19:02;22.52;;;12.40;;
23181;SDS011;11759;51.282;6.642;2023-04-03T01:26:49;345.27;;;83.28;;
23181;SDS011;11759;51.282;6.642;2023-04-03T01:29:16;421.80;;;113.68;;
23181;SDS011;11759;51.282;6.642;2023-04-03T01:31:53;31.83;;;13.13;;
23181;SDS011;11759;51.282;6.642;2023-04-03T01:34:22;329.77;;;89.30;;
23181;SDS011;11759;51.282;6.642;2023-04-03T01:36:50;407.88;;;89.22;;
23181;SDS011;11759;51.282;6.642;2023-04-03T01:39:17;443.27;;;103.80;;
23181;SDS011;11759;51.282;6.642;2023-04-03T01:41:44;422.48;;;91.15;;
23181;SDS011;11759;51.282;6.642;2023-04-03T01:44:17;309.63;;;88.03;;
23181;SDS011;11759;51.282;6.642;2023-04-03T01:46:44;279.00;;;77.18;;
23181;SDS011;11759;51.282;6.642;2023-04-03T01:49:11;329.60;;;85.32;;
23181;SDS011;11759;51.282;6.642;2023-04-03T01:51:37;434.75;;;119.45;;
23181;SDS011;11759;51.282;6.642;2023-04-03T01:54:04;317.98;;;90.47;;
23181;SDS011;11759;51.282;6.642;2023-04-03T01:56:30;271.23;;;77.28;;
23181;SDS011;11759;51.282;6.642;2023-04-03T01:58:57;328.27;;;94.85;;
23181;SDS011;11759;51.282;6.642;2023-04-03T02:01:24;288.83;;;87.82;;
23181;SDS011;11759;51.282;6.642;2023-04-03T02:03:52;171.63;;;60.10;;
23181;SDS011;11759;51.282;6.642;2023-04-03T02:06:19;310.80;;;96.00;;
23181;SDS011;11759;51.282;6.642;2023-04-03T02:08:45;224.02;;;70.13;;
23181;SDS011;11759;51.282;6.642;2023-04-03T02:11:13;278.45;;;86.80;;
23181;SDS011;11759;51.282;6.642;2023-04-03T02:13:40;203.65;;;66.28;;
23181;SDS011;11759;51.282;6.642;2023-04-03T02:16:10;171.23;;;65.80;;
23181;SDS011;11759;51.282;6.642;2023-04-03T02:18:37;148.45;;;60.05;;
23181;SDS011;11759;51.282;6.642;2023-04-03T02:21:04;185.13;;;66.90;;
23181;SDS011;11759;51.282;6.642;2023-04-03T02:23:31;235.18;;;84.07;;
23181;SDS011;11759;51.282;6.642;2023-04-03T02:26:07;165.35;;;63.47;;
23181;SDS011;11759;51.282;6.642;2023-04-03T02:28:36;146.13;;;58.38;;
23181;SDS011;11759;51.282;6.642;2023-04-03T02:31:03;144.60;;;58.80;;
23181;SDS011;11759;51.282;6.642;2023-04-03T02:37:53;129.30;;;55.83;;
23181;SDS011;11759;51.282;6.642;2023-04-03T02:40:21;95.25;;;47.58;;
23181;SDS011;11759;51.282;6.642;2023-04-03T02:42:49;106.03;;;47.38;;
23181;SDS011;11759;51.282;6.642;2023-04-03T02:45:18;129.10;;;51.65;;
23181;SDS011;11759;51.282;6.642;2023-04-03T02:47:44;120.03;;;47.25;;
23181;SDS011;11759;51.282;6.642;2023-04-03T02:50:11;129.32;;;49.85;;
23181;SDS011;11759;51.282;6.642;2023-04-03T02:52:38;97.43;;;26.52;;
23181;SDS011;11759;51.282;6.642;2023-04-03T02:55:05;72.85;;;25.55;;
23181;SDS011;11759;51.282;6.642;2023-04-03T02:57:32;77.63;;;19.95;;
23181;SDS011;11759;51.282;6.642;2023-04-03T02:59:59;36.13;;;11.35;;
23181;SDS011;11759;51.282;6.642;2023-04-03T03:02:26;65.82;;;18.35;;
23181;SDS011;11759;51.282;6.642;2023-04-03T03:04:53;53.22;;;15.77;;
23181;SDS011;11759;51.282;6.642;2023-04-03T03:07:19;42.65;;;13.77;;
23181;SDS011;11759;51.282;6.642;2023-04-03T03:09:46;65.53;;;18.52;;
23181;SDS011;11759;51.282;6.642;2023-04-03T03:12:13;31.35;;;11.65;;
23181;SDS011;11759;51.282;6.642;2023-04-03T03:14:39;50.30;;;16.42;;
23181;SDS011;11759;51.282;6.642;2023-04-03T03:17:07;37.88;;;11.25;;
23181;SDS011;11759;51.282;6.642;2023-04-03T03:19:34;151.98;;;34.92;;
23181;SDS011;11759;51.282;6.642;2023-04-03T03:22:01;39.13;;;10.55;;
23181;SDS011;11759;51.282;6.642;2023-04-03T03:24:27;60.05;;;14.77;;
23181;SDS011;11759;51.282;6.642;2023-04-03T03:26:54;27.23;;;9.57;;
23181;SDS011;11759;51.282;6.642;2023-04-03T03:29:21;30.58;;;10.02;;
23181;SDS011;11759;51.282;6.642;2023-04-03T03:31:47;109.70;;;25.05;;
23181;SDS011;11759;51.282;6.642;2023-04-03T03:34:14;32.60;;;9.45;;
23181;SDS011;11759;51.282;6.642;2023-04-03T03:36:41;147.00;;;32.58;;
23181;SDS011;11759;51.282;6.642;2023-04-03T03:39:08;32.20;;;9.20;;
23181;SDS011;11759;51.282;6.642;2023-04-03T03:41:34;55.00;;;16.00;;
23181;SDS011;11759;51.282;6.642;2023-04-03T03:44:02;24.33;;;9.02;;
23181;SDS011;11759;51.282;6.642;2023-04-03T03:46:31;115.30;;;31.33;;
23181;SDS011;11759;51.282;6.642;2023-04-03T03:48:58;27.15;;;8.18;;
23181;SDS011;11759;51.282;6.642;2023-04-03T03:51:25;109.00;;;27.83;;
23181;SDS011;11759;51.282;6.642;2023-04-03T03:53:52;24.25;;;7.82;;
23181;SDS011;11759;51.282;6.642;2023-04-03T03:56:19;67.00;;;21.73;;
23181;SDS011;11759;51.282;6.642;2023-04-03T03:58:47;16.95;;;6.85;;
23181;SDS011;11759;51.282;6.642;2023-04-03T04:01:13;27.05;;;8.50;;
23181;SDS011;11759;51.282;6.642;2023-04-03T04:03:45;27.45;;;7.80;;
23181;SDS011;11759;51.282;6.642;2023-04-03T04:06:16;24.83;;;7.70;;
23181;SDS011;11759;51.282;6.642;2023-04-03T04:08:44;53.25;;;14.82;;
23181;SDS011;11759;51.282;6.642;2023-04-03T04:11:12;30.15;;;8.50;;
23181;SDS011;11759;51.282;6.642;2023-04-03T04:13:40;41.97;;;11.48;;
23181;SDS011;11759;51.282;6.642;2023-04-03T04:16:08;27.88;;;8.07;;
23181;SDS011;11759;51.282;6.642;2023-04-03T04:18:37;40.75;;;10.95;;
23181;SDS011;11759;51.282;6.642;2023-04-03T04:21:03;25.35;;;8.27;;
23181;SDS011;11759;51.282;6.642;2023-04-03T04:23:30;19.83;;;7.47;;
23181;SDS011;11759;51.282;6.642;2023-04-03T04:25:58;32.28;;;9.88;;
23181;SDS011;11759;51.282;6.642;2023-04-03T04:28:27;16.88;;;6.95;;
23181;SDS011;11759;51.282;6.642;2023-04-03T04:30:56;27.38;;;9.98;;
23181;SDS011;11759;51.282;6.642;2023-04-03T04:33:25;16.10;;;6.43;;
23181;SDS011;11759;51.282;6.642;2023-04-03T04:35:52;32.05;;;11.35;;
23181;SDS011;11759;51.282;6.642;2023-04-03T04:38:20;17.30;;;6.82;;
23181;SDS011;11759;51.282;6.642;2023-04-03T04:40:49;38.03;;;13.27;;
23181;SDS011;11759;51.282;6.642;2023-04-03T04:43:16;28.00;;;7.30;;
23181;SDS011;11759;51.282;6.642;2023-04-03T04:45:45;47.63;;;14.20;;
23181;SDS011;11759;51.282;6.642;2023-04-03T04:48:12;21.70;;;6.38;;
23181;SDS011;11759;51.282;6.642;2023-04-03T04:50:39;41.78;;;11.95;;
23181;SDS011;11759;51.282;6.642;2023-04-03T04:53:06;18.45;;;8.30;;
23181;SDS011;11759;51.282;6.642;2023-04-03T04:55:33;28.80;;;7.28;;
23181;SDS011;11759;51.282;6.642;2023-04-03T04:58:00;19.65;;;8.82;;
23181;SDS011;11759;51.282;6.642;2023-04-03T05:00:27;16.42;;;6.28;;
23181;SDS011;11759;51.282;6.642;2023-04-03T05:02:53;15.57;;;7.15;;
23181;SDS011;11759;51.282;6.642;2023-04-03T05:05:20;70.82;;;17.55;;
23181;SDS011;11759;51.282;6.642;2023-04-03T05:07:47;22.33;;;6.78;;
23181;SDS011;11759;51.282;6.642;2023-04-03T05:10:14;125.18;;;36.00;;
23181;SDS011;11759;51.282;6.642;2023-04-03T05:12:41;21.15;;;6.45;;
23181;SDS011;11759;51.282;6.642;2023-04-03T05:15:08;116.25;;;30.25;;
23181;SDS011;11759;51.282;6.642;2023-04-03T05:17:35;39.03;;;8.80;;
23181;SDS011;11759;51.282;6.642;2023-04-03T05:20:04;83.25;;;21.33;;
23181;SDS011;11759;51.282;6.642;2023-04-03T05:22:31;29.02;;;7.75;;
23181;SDS011;11759;51.282;6.642;2023-04-03T05:25:04;145.90;;;33.55;;
23181;SDS011;11759;51.282;6.642;2023-04-03T05:27:31;65.57;;;14.15;;
23181;SDS011;11759;51.282;6.642;2023-04-03T05:29:58;26.15;;;7.13;;
23181;SDS011;11759;51.282;6.642;2023-04-03T05:32:27;71.90;;;16.52;;
23181;SDS011;11759;51.282;6.642;2023-04-03T05:35:09;84.38;;;20.63;;
23181;SDS011;11759;51.282;6.642;2023-04-03T05:37:37;38.75;;;9.60;;
23181;SDS011;11759;51.282;6.642;2023-04-03T05:40:04;48.15;;;14.88;;
23181;SDS011;11759;51.282;6.642;2023-04-03T05:42:32;57.33;;;12.45;;
23181;SDS011;11759;51.282;6.642;2023-04-03T05:44:59;27.70;;;7.40;;
23181;SDS011;11759;51.282;6.642;2023-04-03T05:47:26;130.35;;;29.65;;
23181;SDS011;11759;51.282;6.642;2023-04-03T05:49:53;63.55;;;15.18;;
23181;SDS011;11759;51.282;6.642;2023-04-03T05:52:21;25.50;;;7.15;;
23181;SDS011;11759;51.282;6.642;2023-04-03T05:54:58;46.60;;;11.63;;
23181;SDS011;11759;51.282;6.642;2023-04-03T05:57:27;101.20;;;25.17;;
23181;SDS011;11759;51.282;6.642;2023-04-03T05:59:54;23.27;;;7.05;;
23181;SDS011;11759;51.282;6.642;2023-04-03T06:02:22;103.22;;;26.70;;
23181;SDS011;11759;51.282;6.642;2023-04-03T06:04:50;26.58;;;7.28;;
23181;SDS011;11759;51.282;6.642;2023-04-03T06:07:19;169.02;;;41.72;;
23181;SDS011;11759;51.282;6.642;2023-04-03T06:09:49;18.38;;;6.10;;
23181;SDS011;11759;51.282;6.642;2023-04-03T06:12:17;76.82;;;21.67;;
23181;SDS011;11759;51.282;6.642;2023-04-03T06:14:44;28.75;;;6.13;;
23181;SDS011;11759;51.282;6.642;2023-04-03T06:17:13;36.72;;;9.75;;
23181;SDS011;11759;51.282;6.642;2023-04-03T06:19:41;22.52;;;5.55;;
23181;SDS011;11759;51.282;6.642;2023-04-03T06:22:08;32.92;;;13.77;;
23181;SDS011;11759;51.282;6.642;2023-04-03T06:24:35;29.17;;;10.30;;
23181;SDS011;11759;51.282;6.642;2023-04-03T06:27:02;11.98;;;5.63;;
23181;SDS011;11759;51.282;6.642;2023-04-03T06:29:28;32.83;;;11.50;;
23181;SDS011;11759;51.282;6.642;2023-04-03T06:31:55;16.75;;;6.53;;
23181;SDS011;11759;51.282;6.642;2023-04-03T06:34:22;34.72;;;12.27;;
23181;SDS011;11759;51.282;6.642;2023-04-03T06:36:49;13.60;;;5.03;;
23181;SDS011;11759;51.282;6.642;2023-04-03T06:39:17;18.52;;;8.70;;
23181;SDS011;11759;51.282;6.642;2023-04-03T06:41:51;10.85;;;4.75;;
23181;SDS011;11759;51.282;6.642;2023-04-03T06:44:26;54.17;;;21.83;;
23181;SDS011;11759;51.282;6.642;2023-04-03T06:46:52;13.85;;;5.68;;
23181;SDS011;11759;51.282;6.642;2023-04-03T06:49:20;75.22;;;26.10;;
23181;SDS011;11759;51.282;6.642;2023-04-03T06:51:47;11.20;;;4.55;;
23181;SDS011;11759;51.282;6.642;2023-04-03T06:54:14;28.75;;;9.88;;
23181;SDS011;11759;51.282;6.642;2023-04-03T06:56:41;17.80;;;5.50;;
23181;SDS011;11759;51.282;6.642;2023-04-03T06:59:08;24.65;;;7.28;;
23181;SDS011;11759;51.282;6.642;2023-04-03T07:01:36;32.63;;;12.52;;
23181;SDS011;11759;51.282;6.642;2023-04-03T07:04:03;19.95;;;5.72;;
23181;SDS011;11759;51.282;6.642;2023-04-03T07:06:30;17.42;;;6.35;;
23181;SDS011;11759;51.282;6.642;2023-04-03T07:08:57;26.95;;;8.88;;
23181;SDS011;11759;51.282;6.642;2023-04-03T07:11:23;14.85;;;5.63;;
23181;SDS011;11759;51.282;6.642;2023-04-03T07:13:50;107.72;;;28.77;;
23181;SDS011;11759;51.282;6.642;2023-04-03T07:16:17;19.98;;;6.25;;
23181;SDS011;11759;51.282;6.642;2023-04-03T07:18:45;45.92;;;12.73;;
23181;SDS011;11759;51.282;6.642;2023-04-03T07:21:11;18.55;;;6.13;;
23181;SDS011;11759;51.282;6.642;2023-04-03T07:23:38;67.05;;;25.08;;
23181;SDS011;11759;51.282;6.642;2023-04-03T07:26:06;17.65;;;5.35;;
23181;SDS011;11759;51.282;6.642;2023-04-03T07:28:34;25.58;;;8.70;;
23181;SDS011;11759;51.282;6.642;2023-04-03T07:31:02;29.38;;;7.60;;
23181;SDS011;11759;51.282;6.642;2023-04-03T07:33:30;20.00;;;6.53;;
23181;SDS011;11759;51.282;6.642;2023-04-03T07:35:57;54.45;;;15.82;;
23181;SDS011;11759;51.282;6.642;2023-04-03T07:38:25;19.65;;;5.18;;
23181;SDS011;11759;51.282;6.642;2023-04-03T07:40:52;44.38;;;11.68;;
23181;SDS011;11759;51.282;6.642;2023-04-03T07:43:19;17.90;;;5.95;;
23181;SDS011;11759;51.282;6.642;2023-04-03T07:45:47;49.70;;;13.95;;
23181;SDS011;11759;51.282;6.642;2023-04-03T07:48:24;17.92;;;6.68;;
23181;SDS011;11759;51.282;6.642;2023-04-03T07:50:52;30.50;;;10.63;;
23181;SDS011;11759;51.282;6.642;2023-04-03T07:53:19;23.30;;;7.53;;
23181;SDS011;11759;51.282;6.642;2023-04-03T07:55:46;131.10;;;40.45;;
23181;SDS011;11759;51.282;6.642;2023-04-03T07:58:14;19.73;;;5.15;;
23181;SDS011;11759;51.282;6.642;2023-04-03T08:00:43;81.30;;;20.45;;
23181;SDS011;11759;51.282;6.642;2023-04-03T08:03:10;36.83;;;9.23;;
23181;SDS011;11759;51.282;6.642;2023-04-03T08:05:39;26.27;;;6.25;;
23181;SDS011;11759;51.282;6.642;2023-04-03T08:08:08;36.15;;;9.45;;
23181;SDS011;11759;51.282;6.642;2023-04-03T08:10:35;19.77;;;5.53;;
23181;SDS011;11759;51.282;6.642;2023-04-03T08:13:04;36.10;;;10.18;;
23181;SDS011;11759;51.282;6.642;2023-04-03T08:15:31;18.73;;;5.28;;
23181;SDS011;11759;51.282;6.642;2023-04-03T08:17:58;104.03;;;28.27;;
23181;SDS011;11759;51.282;6.642;2023-04-03T08:20:26;15.85;;;5.32;;
23181;SDS011;11759;51.282;6.642;2023-04-03T08:22:53;37.95;;;11.30;;
23181;SDS011;11759;51.282;6.642;2023-04-03T08:25:20;18.70;;;4.93;;
23181;SDS011;11759;51.282;6.642;2023-04-03T08:27:47;26.45;;;7.97;;
23181;SDS011;11759;51.282;6.642;2023-04-03T08:30:14;39.60;;;16.65;;
23181;SDS011;11759;51.282;6.642;2023-04-03T08:32:41;15.65;;;4.95;;
23181;SDS011;11759;51.282;6.642;2023-04-03T08:35:09;70.47;;;20.85;;
23181;SDS011;11759;51.282;6.642;2023-04-03T08:37:37;16.58;;;5.32;;
23181;SDS011;11759;51.282;6.642;2023-04-03T08:40:06;108.57;;;32.67;;
23181;SDS011;11759;51.282;6.642;2023-04-03T08:51:13;8.52;;;3.90;;
23181;SDS011;11759;51.282;6.642;2023-04-03T08:53:42;278.10;;;118.68;;
23181;SDS011;11759;51.282;6.642;2023-04-03T08:56:11;472.55;;;137.30;;
23181;SDS011;11759;51.282;6.642;2023-04-03T08:58:45;555.88;;;140.77;;
23181;SDS011;11759;51.282;6.642;2023-04-03T09:01:27;550.97;;;134.23;;
23181;SDS011;11759;51.282;6.642;2023-04-03T09:03:57;586.35;;;149.60;;
23181;SDS011;11759;51.282;6.642;2023-04-03T09:06:31;541.22;;;126.05;;
23181;SDS011;11759;51.282;6.642;2023-04-03T09:09:07;555.15;;;133.02;;
23181;SDS011;11759;51.282;6.642;2023-04-03T09:11:45;535.38;;;131.77;;
23181;SDS011;11759;51.282;6.642;2023-04-03T09:14:29;575.42;;;145.18;;
23181;SDS011;11759;51.282;6.642;2023-04-03T09:17:15;550.97;;;132.70;;
23181;SDS011;11759;51.282;6.642;2023-04-03T09:20:10;552.20;;;136.55;;
23181;SDS011;11759;51.282;6.642;2023-04-03T09:22:46;608.30;;;166.82;;
23181;SDS011;11759;51.282;6.642;2023-04-03T09:25:22;598.45;;;176.45;;
23181;SDS011;11759;51.282;6.642;2023-04-03T09:27:50;548.03;;;126.78;;
23181;SDS011;11759;51.282;6.642;2023-04-03T09:30:19;596.45;;;173.52;;
23181;SDS011;11759;51.282;6.642;2023-04-03T09:32:54;549.42;;;126.82;;
23181;SDS011;11759;51.282;6.642;2023-04-03T09:35:24;530.15;;;117.75;;
23181;SDS011;11759;51.282;6.642;2023-04-03T09:40:40;576.72;;;147.40;;
23181;SDS011;11759;51.282;6.642;2023-04-03T09:45:44;580.58;;;148.90;;
23181;SDS011;11759;51.282;6.642;2023-04-03T09:53:38;4.90;;;1.25;;
23181;SDS011;11759;51.282;6.642;2023-04-03T09:58:43;3.92;;;1.40;;
23181;SDS011;11759;51.282;6.642;2023-04-03T10:06:37;2.50;;;1.23;;
23181;SDS011;11759;51.282;6.642;2023-04-03T10:09:23;1.77;;;1.08;;
23181;SDS011;11759;51.282;6.642;2023-04-03T10:11:57;3.47;;;1.27;;
23181;SDS011;11759;51.282;6.642;2023-04-03T10:14:25;201.20;;;88.07;;
23181;SDS011;11759;51.282;6.642;2023-04-03T10:16:55;541.53;;;135.40;;
23181;SDS011;11759;51.282;6.642;2023-04-03T10:22:04;581.55;;;153.70;;
23181;SDS011;11759;51.282;6.642;2023-04-03T10:24:37;543.78;;;122.28;;
23181;SDS011;11759;51.282;6.642;2023-04-03T10:41:37;543.38;;;133.48;;
23181;SDS011;11759;51.282;6.642;2023-04-03T10:44:30;598.88;;;227.23;;
23181;SDS011;11759;51.282;6.642;2023-04-03T10:47:08;597.35;;;163.13;;
23181;SDS011;11759;51.282;6.642;2023-04-03T10:52:48;557.70;;;140.63;;
23181;SDS011;11759;51.282;6.642;2023-04-03T10:55:33;565.75;;;146.95;;
23181;SDS011;11759;51.282;6.642;2023-04-03T10:58:05;607.20;;;176.05;;
23181;SDS011;11759;51.282;6.642;2023-04-03T11:00:36;571.53;;;153.23;;
23181;SDS011;11759;51.282;6.642;2023-04-03T11:03:11;567.20;;;188.73;;
23181;SDS011;11759;51.282;6.642;2023-04-03T11:05:43;3.92;;;1.48;;
23181;SDS011;11759;51.282;6.642;2023-04-03T11:10:44;3.08;;;1.52;;
23181;SDS011;11759;51.282;6.642;2023-04-03T11:13:17;7.22;;;3.00;;
23181;SDS011;11759;51.282;6.642;2023-04-03T11:15:46;70.97;;;13.98;;
23181;SDS011;11759;51.282;6.642;2023-04-03T11:18:17;565.33;;;132.75;;
23181;SDS011;11759;51.282;6.642;2023-04-03T11:21:06;511.60;;;112.20;;
23181;SDS011;11759;51.282;6.642;2023-04-03T11:23:43;4.90;;;1.50;;
23181;SDS011;11759;51.282;6.642;2023-04-03T11:26:16;2.40;;;1.40;;
23181;SDS011;11759;51.282;6.642;2023-04-03T11:28:44;518.97;;;140.95;;
23181;SDS011;11759;51.282;6.642;2023-04-03T11:33:51;179.48;;;120.30;;
23181;SDS011;11759;51.282;6.642;2023-04-03T11:36:23;25.67;;;5.60;;
23181;SDS011;11759;51.282;6.642;2023-04-03T11:39:18;693.70;;;245.45;;
23181;SDS011;11759;51.282;6.642;2023-04-03T11:41:49;69.10;;;13.90;;
23181;SDS011;11759;51.282;6.642;2023-04-03T11:44:35;11.30;;;4.40;;
23181;SDS011;11759;51.282;6.642;2023-04-03T11:47:05;190.60;;;92.38;;
23181;SDS011;11759;51.282;6.642;2023-04-03T11:52:58;3.17;;;1.40;;
23181;SDS011;11759;51.282;6.642;2023-04-03T12:05:51;534.40;;;120.38;;
23181;SDS011;11759;51.282;6.642;2023-04-03T12:16:25;561.05;;;124.00;;
23181;SDS011;11759;51.282;6.642;2023-04-03T12:18:57;743.22;;;269.45;;
23181;SDS011;11759;51.282;6.642;2023-04-03T12:27:00;3.38;;;1.23;;
23181;SDS011;11759;51.282;6.642;2023-04-03T12:32:04;53.10;;;19.30;;
23181;SDS011;11759;51.282;6.642;2023-04-03T12:45:24;720.72;;;235.35;;
23181;SDS011;11759;51.282;6.642;2023-04-03T12:47:52;563.28;;;126.78;;
23181;SDS011;11759;51.282;6.642;2023-04-03T12:50:24;471.50;;;142.55;;
23181;SDS011;11759;51.282;6.642;2023-04-03T12:52:58;544.85;;;117.63;;
23181;SDS011;11759;51.282;6.642;2023-04-03T12:55:26;595.97;;;146.82;;
23181;SDS011;11759;51.282;6.642;2023-04-03T12:57:52;462.50;;;116.82;;
23181;SDS011;11759;51.282;6.642;2023-04-03T13:00:20;683.17;;;237.38;;
23181;SDS011;11759;51.282;6.642;2023-04-03T13:03:02;562.45;;;128.00;;
23181;SDS011;11759;51.282;6.642;2023-04-03T13:05:29;570.45;;;134.95;;
23181;SDS011;11759;51.282;6.642;2023-04-03T13:08:07;597.40;;;155.55;;
23181;SDS011;11759;51.282;6.642;2023-04-03T13:13:22;569.40;;;132.02;;
23181;SDS011;11759;51.282;6.642;2023-04-03T13:15:49;563.35;;;130.00;;
23181;SDS011;11759;51.282;6.642;2023-04-03T13:18:23;671.63;;;211.02;;
23181;SDS011;11759;51.282;6.642;2023-04-03T13:20:50;555.55;;;118.28;;
23181;SDS011;11759;51.282;6.642;2023-04-03T13:23:19;593.80;;;142.15;;
23181;SDS011;11759;51.282;6.642;2023-04-03T13:25:47;582.38;;;137.63;;
23181;SDS011;11759;51.282;6.642;2023-04-03T13:28:19;558.78;;;123.15;;
23181;SDS011;11759;51.282;6.642;2023-04-03T13:31:07;593.28;;;144.38;;
23181;SDS011;11759;51.282;6.642;2023-04-03T13:33:36;558.13;;;121.90;;
23181;SDS011;11759;51.282;6.642;2023-04-03T13:36:07;781.92;;;295.75;;
23181;SDS011;11759;51.282;6.642;2023-04-03T13:38:39;553.80;;;118.05;;
23181;SDS011;11759;51.282;6.642;2023-04-03T13:41:22;605.72;;;152.93;;
23181;SDS011;11759;51.282;6.642;2023-04-03T13:43:51;567.38;;;129.43;;
23181;SDS011;11759;51.282;6.642;2023-04-03T13:46:26;560.92;;;125.63;;
23181;SDS011;11759;51.282;6.642;2023-04-03T13:48:55;580.97;;;138.18;;
23181;SDS011;11759;51.282;6.642;2023-04-03T13:51:26;570.22;;;128.13;;
23181;SDS011;11759;51.282;6.642;2023-04-03T13:56:32;568.70;;;130.15;;
23181;SDS011;11759;51.282;6.642;2023-04-03T14:04:14;709.53;;;238.43;;
23181;SDS011;11759;51.282;6.642;2023-04-03T14:06:45;558.67;;;120.43;;
23181;SDS011;11759;51.282;6.642;2023-04-03T14:09:13;596.47;;;146.77;;
23181;SDS011;11759;51.282;6.642;2023-04-03T14:11:41;569.05;;;133.25;;
23181;SDS011;11759;51.282;6.642;2023-04-03T14:14:14;566.40;;;127.65;;
23181;SDS011;11759;51.282;6.642;2023-04-03T14:16:44;564.20;;;123.97;;
23181;SDS011;11759;51.282;6.642;2023-04-03T14:19:23;614.53;;;163.30;;
23181;SDS011;11759;51.282;6.642;2023-04-03T14:21:52;551.38;;;116.93;;
23181;SDS011;11759;51.282;6.642;2023-04-03T14:24:20;583.33;;;136.68;;
23181;SDS011;11759;51.282;6.642;2023-04-03T14:26:49;552.78;;;117.80;;
23181;SDS011;11759;51.282;6.642;2023-04-03T14:29:18;576.05;;;131.05;;
23181;SDS011;11759;51.282;6.642;2023-04-03T14:31:45;544.50;;;113.35;;
23181;SDS011;11759;51.282;6.642;2023-04-03T14:34:13;595.22;;;149.43;;
23181;SDS011;11759;51.282;6.642;2023-04-03T14:36:41;556.85;;;117.32;;
23181;SDS011;11759;51.282;6.642;2023-04-03T14:39:18;549.78;;;115.45;;
23181;SDS011;11759;51.282;6.642;2023-04-03T14:41:45;541.90;;;110.85;;
23181;SDS011;11759;51.282;6.642;2023-04-03T14:44:11;554.33;;;116.38;;
23181;SDS011;11759;51.282;6.642;2023-04-03T14:46:39;549.20;;;113.95;;
23181;SDS011;11759;51.282;6.642;2023-04-03T14:49:24;568.00;;;125.30;;
23181;SDS011;11759;51.282;6.642;2023-04-03T14:51:54;538.00;;;108.07;;
23181;SDS011;11759;51.282;6.642;2023-04-03T14:54:22;656.75;;;189.77;;
23181;SDS011;11759;51.282;6.642;2023-04-03T14:59:21;562.45;;;123.82;;
23181;SDS011;11759;51.282;6.642;2023-04-03T15:01:48;531.13;;;103.28;;
23181;SDS011;11759;51.282;6.642;2023-04-03T15:04:15;555.42;;;120.15;;
23181;SDS011;11759;51.282;6.642;2023-04-03T15:06:44;529.47;;;103.90;;
23181;SDS011;11759;51.282;6.642;2023-04-03T15:09:21;540.78;;;109.97;;
23181;SDS011;11759;51.282;6.642;2023-04-03T15:11:49;532.15;;;104.57;;
23181;SDS011;11759;51.282;6.642;2023-04-03T15:14:17;554.10;;;117.13;;
23181;SDS011;11759;51.282;6.642;2023-04-03T15:17:03;529.00;;;104.40;;
23181;SDS011;11759;51.282;6.642;2023-04-03T15:19:36;561.20;;;120.88;;
23181;SDS011;11759;51.282;6.642;2023-04-03T15:22:04;533.13;;;107.68;;
23181;SDS011;11759;51.282;6.642;2023-04-03T15:24:30;679.78;;;206.80;;
23181;SDS011;11759;51.282;6.642;2023-04-03T15:26:57;527.33;;;104.68;;
23181;SDS011;11759;51.282;6.642;2023-04-03T15:29:24;576.35;;;130.35;;
23181;SDS011;11759;51.282;6.642;2023-04-03T15:31:50;561.35;;;119.10;;
23181;SDS011;11759;51.282;6.642;2023-04-03T15:34:20;526.65;;;103.80;;
23181;SDS011;11759;51.282;6.642;2023-04-03T15:36:48;601.70;;;152.43;;
23181;SDS011;11759;51.282;6.642;2023-04-03T15:39:16;545.35;;;110.65;;
23181;SDS011;11759;51.282;6.642;2023-04-03T15:41:43;558.08;;;115.38;;
23181;SDS011;11759;51.282;6.642;2023-04-03T15:44:11;537.83;;;103.50;;
23181;SDS011;11759;51.282;6.642;2023-04-03T15:46:39;546.88;;;111.47;;
23181;SDS011;11759;51.282;6.642;2023-04-03T15:49:05;526.45;;;102.97;;
23181;SDS011;11759;51.282;6.642;2023-04-03T15:51:32;520.40;;;101.65;;
23181;SDS011;11759;51.282;6.642;2023-04-03T15:53:58;595.70;;;151.02;;
23181;SDS011;11759;51.282;6.642;2023-04-03T15:56:25;521.55;;;99.93;;
23181;SDS011;11759;51.282;6.642;2023-04-03T15:58:52;661.47;;;188.75;;
23181;SDS011;11759;51.282;6.642;2023-04-03T16:01:18;526.13;;;103.10;;
23181;SDS011;11759;51.282;6.642;2023-04-03T16:03:45;567.20;;;121.97;;
23181;SDS011;11759;51.282;6.642;2023-04-03T16:06:16;522.65;;;102.03;;
23181;SDS011;11759;51.282;6.642;2023-04-03T16:08:45;619.90;;;167.05;;
23181;SDS011;11759;51.282;6.642;2023-04-03T16:11:13;682.80;;;216.68;;
23181;SDS011;11759;51.282;6.642;2023-04-03T16:13:39;522.17;;;101.10;;
23181;SDS011;11759;51.282;6.642;2023-04-03T16:16:06;572.40;;;130.27;;
23181;SDS011;11759;51.282;6.642;2023-04-03T16:18:34;513.10;;;99.07;;
23181;SDS011;11759;51.282;6.642;2023-04-03T16:21:01;551.25;;;115.78;;
23181;SDS011;11759;51.282;6.642;2023-04-03T16:23:28;519.22;;;100.45;;